createdAt,value
2022-09-12T00:01:14.252Z,100379.69
2022-09-12T00:03:43.090Z,100376.50
2022-09-12T00:06:13.850Z,100355.38
2022-09-12T00:08:44.510Z,100366.41
2022-09-12T00:11:13.784Z,100367.91
2022-09-12T00:13:43.173Z,100359.94
2022-09-12T00:16:18.750Z,100353.94
2022-09-12T00:18:47.768Z,100366.06
2022-09-12T00:21:16.627Z,100363.16
2022-09-12T00:23:46.859Z,100356.19
2022-09-12T00:26:15.291Z,100355.56
2022-09-12T00:28:43.534Z,100362.84
2022-09-12T00:31:14.371Z,100357.66
2022-09-12T00:33:42.968Z,100348.41
2022-09-12T00:36:14.852Z,100363.53
2022-09-12T00:38:43.094Z,100353.44
2022-09-12T00:41:18.254Z,100352.63
2022-09-12T00:43:47.853Z,100351.97
2022-09-12T00:46:26.195Z,100343.88
2022-09-12T00:48:58.055Z,100341.63
2022-09-12T00:51:26.880Z,100349.41
2022-09-12T00:53:56.416Z,100351.38
2022-09-12T00:56:26.408Z,100338.84
2022-09-12T00:58:58.896Z,100335.44
2022-09-12T01:01:31.738Z,100339.00
2022-09-12T01:04:00.972Z,100326.56
2022-09-12T01:06:34.134Z,100328.16
2022-09-12T01:09:04.147Z,100325.72
2022-09-12T01:11:37.033Z,100330.91
2022-09-12T01:14:07.552Z,100326.03
2022-09-12T01:16:37.814Z,100317.13
2022-09-12T01:19:23.492Z,100318.09
2022-09-12T01:22:03.178Z,100320.69
2022-09-12T01:24:44.613Z,100316.00
2022-09-12T01:27:41.407Z,100328.97
2022-09-12T01:30:48.118Z,100323.94
2022-09-12T01:33:32.802Z,100323.94
2022-09-12T01:36:27.067Z,100330.44
2022-09-12T01:39:01.456Z,100321.50
2022-09-12T01:41:35.378Z,100310.84
2022-09-12T01:44:12.994Z,100313.91
2022-09-12T01:46:46.611Z,100308.56
2022-09-12T01:49:21.519Z,100304.97
2022-09-12T01:51:57.824Z,100307.09
2022-09-12T01:54:31.830Z,100298.03
2022-09-12T01:57:05.174Z,100305.00
2022-09-12T01:59:36.935Z,100293.81
2022-09-12T02:02:09.942Z,100293.13
2022-09-12T02:04:48.743Z,100294.13
2022-09-12T02:07:21.398Z,100292.19
2022-09-12T02:09:55.614Z,100285.22
2022-09-12T02:12:30.816Z,100287.16
2022-09-12T02:15:03.370Z,100271.75
2022-09-12T02:17:38.957Z,100282.31
2022-09-12T02:20:26.008Z,100274.66
2022-09-12T02:23:08.281Z,100258.16
2022-09-12T02:25:41.395Z,100272.22
2022-09-12T02:28:13.589Z,100270.44
2022-09-12T02:30:46.753Z,100278.22
2022-09-12T02:33:21.835Z,100268.81
2022-09-12T02:35:58.410Z,100260.41
2022-09-12T02:38:31.992Z,100259.25
2022-09-12T02:41:00.102Z,100252.31
2022-09-12T02:43:28.118Z,100272.06
2022-09-12T02:45:56.267Z,100271.72
2022-09-12T02:48:29.132Z,100267.06
2022-09-12T02:50:58.704Z,100263.44
2022-09-12T02:53:27.441Z,100257.16
2022-09-12T02:55:55.818Z,100264.59
2022-09-12T02:58:30.672Z,100269.75
2022-09-12T03:01:06.632Z,100264.13
2022-09-12T03:03:55.268Z,100264.31
2022-09-12T03:06:32.719Z,100258.28
2022-09-12T03:09:09.940Z,100267.69
2022-09-12T03:11:52.093Z,100263.19
2022-09-12T03:14:34.069Z,100263.97
2022-09-12T03:17:11.204Z,100261.69
2022-09-12T03:19:52.261Z,100258.91
2022-09-12T03:22:29.806Z,100255.19
2022-09-12T03:25:06.792Z,100252.59
2022-09-12T03:27:37.380Z,100254.53
2022-09-12T03:30:07.026Z,100248.16
2022-09-12T03:32:42.729Z,100244.09
2022-09-12T03:35:11.905Z,100254.19
2022-09-12T03:37:41.745Z,100251.47
2022-09-12T03:40:11.824Z,100244.19
2022-09-12T03:42:40.114Z,100239.81
2022-09-12T03:45:10.013Z,100240.59
2022-09-12T03:47:38.086Z,100243.53
2022-09-12T03:50:07.277Z,100237.22
2022-09-12T03:52:35.283Z,100234.00
2022-09-12T03:55:05.118Z,100231.88
2022-09-12T03:57:33.126Z,100235.19
2022-09-12T04:00:02.016Z,100235.75
2022-09-12T04:02:40.565Z,100242.53
2022-09-12T04:05:09.100Z,100226.81
2022-09-12T04:07:37.157Z,100241.38
2022-09-12T04:10:07.521Z,100241.44
2022-09-12T04:12:35.915Z,100227.78
2022-09-12T04:15:04.021Z,100229.06
2022-09-12T04:17:32.018Z,100225.56
2022-09-12T04:20:00.097Z,100232.25
2022-09-12T04:22:29.893Z,100233.00
2022-09-12T04:24:57.859Z,100234.00
2022-09-12T04:27:27.400Z,100229.09
2022-09-12T04:29:59.139Z,100233.66
2022-09-12T04:32:27.230Z,100220.25
2022-09-12T04:34:55.210Z,100236.22
2022-09-12T04:37:24.244Z,100233.47
2022-09-12T04:39:56.040Z,100220.06
2022-09-12T04:42:26.559Z,100227.22
2022-09-12T04:44:55.983Z,100231.06
2022-09-12T04:47:24.158Z,100208.88
2022-09-12T04:49:52.491Z,100224.91
2022-09-12T04:52:20.928Z,100230.44
2022-09-12T04:54:48.888Z,100222.00
2022-09-12T04:57:16.933Z,100228.63
2022-09-12T04:59:47.807Z,100228.16
2022-09-12T05:02:17.263Z,100216.31
2022-09-12T05:04:46.899Z,100221.03
2022-09-12T05:07:15.001Z,100219.88
2022-09-12T05:09:43.744Z,100215.63
2022-09-12T05:12:11.715Z,100208.19
2022-09-12T05:14:40.587Z,100209.03
2022-09-12T05:17:08.945Z,100217.28
2022-09-12T05:19:39.171Z,100209.84
2022-09-12T05:22:07.161Z,100212.91
2022-09-12T05:24:35.184Z,100206.22
2022-09-12T05:27:04.757Z,100189.41
2022-09-12T05:29:32.859Z,100191.22
2022-09-12T05:32:00.880Z,100185.72
2022-09-12T05:34:28.971Z,100191.09
2022-09-12T05:36:58.307Z,100186.38
2022-09-12T05:39:27.807Z,100184.28
2022-09-12T05:41:56.402Z,100191.09
2022-09-12T05:44:24.920Z,100182.16
2022-09-12T05:46:53.671Z,100187.81
2022-09-12T05:49:22.629Z,100193.78
2022-09-12T05:51:51.636Z,100193.28
2022-09-12T05:54:21.335Z,100194.38
2022-09-12T05:56:50.032Z,100176.94
2022-09-12T05:59:22.041Z,100176.19
2022-09-12T06:01:50.683Z,100173.13
2022-09-12T06:04:18.795Z,100175.19
2022-09-12T06:06:48.694Z,100180.88
2022-09-12T06:09:17.932Z,100181.84
2022-09-12T06:11:47.750Z,100185.84
2022-09-12T06:14:17.584Z,100188.09
2022-09-12T06:16:45.574Z,100178.22
2022-09-12T06:19:16.172Z,100184.97
2022-09-12T06:21:44.737Z,100186.97
2022-09-12T06:24:12.886Z,100194.09
2022-09-12T06:26:40.992Z,100191.16
2022-09-12T06:29:13.383Z,100188.94
2022-09-12T06:31:43.175Z,100187.63
2022-09-12T06:34:15.149Z,100183.69
2022-09-12T06:36:45.399Z,100190.59
2022-09-12T06:39:16.207Z,100188.53
2022-09-12T06:41:44.645Z,100180.09
2022-09-12T06:44:16.760Z,100188.50
2022-09-12T06:46:45.334Z,100182.53
2022-09-12T06:49:13.790Z,100182.63
2022-09-12T06:51:43.308Z,100186.19
2022-09-12T06:54:13.935Z,100178.44
2022-09-12T06:56:42.217Z,100186.91
2022-09-12T06:59:10.312Z,100189.09
2022-09-12T07:01:42.480Z,100180.06
2022-09-12T07:04:11.745Z,100171.41
2022-09-12T07:06:41.840Z,100190.09
2022-09-12T07:09:12.743Z,100183.50
2022-09-12T07:11:42.872Z,100167.22
2022-09-12T07:14:14.064Z,100147.31
2022-09-12T07:16:43.741Z,100177.09
2022-09-12T07:19:12.140Z,100170.63
2022-09-12T07:21:41.012Z,100163.28
2022-09-12T07:24:10.963Z,100166.06
2022-09-12T07:26:40.500Z,100161.88
2022-09-12T07:29:35.470Z,100167.09
2022-09-12T07:32:01.339Z,100177.19
2022-09-12T07:34:29.316Z,100179.47
2022-09-12T07:36:57.256Z,100168.91
2022-09-12T07:39:25.275Z,100173.38
2022-09-12T07:41:55.511Z,100172.59
2022-09-12T07:44:23.611Z,100174.03
2022-09-12T07:46:52.335Z,100175.91
2022-09-12T07:49:21.669Z,100179.59
2022-09-12T07:51:49.854Z,100175.56
2022-09-12T07:54:17.898Z,100171.47
2022-09-12T07:56:45.879Z,100170.63
2022-09-12T07:59:18.922Z,100152.97
2022-09-12T08:01:58.241Z,100159.94
2022-09-12T08:04:27.676Z,100153.94
2022-09-12T08:06:55.662Z,100157.06
2022-09-12T08:09:26.703Z,100145.19
2022-09-12T08:11:54.728Z,100152.13
2022-09-12T08:14:22.693Z,100150.03
2022-09-12T08:16:50.708Z,100141.09
2022-09-12T08:19:18.649Z,100142.66
2022-09-12T08:21:48.060Z,100149.22
2022-09-12T08:24:16.109Z,100151.03
2022-09-12T08:26:44.147Z,100154.81
2022-09-12T08:29:12.545Z,100125.41
2022-09-12T08:31:42.499Z,100149.91
2022-09-12T08:34:10.791Z,100147.03
2022-09-12T08:36:38.798Z,100149.38
2022-09-12T08:39:08.981Z,100151.44
2022-09-12T08:41:40.762Z,100140.59
2022-09-12T08:44:29.213Z,100151.00
2022-09-12T08:47:23.556Z,100155.03
2022-09-12T08:50:03.607Z,100142.84
2022-09-12T08:52:39.369Z,100139.16
2022-09-12T08:55:24.740Z,100127.88
2022-09-12T08:57:54.536Z,100150.78
2022-09-12T09:00:23.233Z,100125.25
2022-09-12T09:03:11.599Z,100137.84
2022-09-12T09:05:50.101Z,100144.66
2022-09-12T09:08:45.487Z,100149.44
2022-09-12T09:11:27.304Z,100143.31
2022-09-12T09:14:22.255Z,100153.28
2022-09-12T09:16:53.295Z,100147.13
2022-09-12T09:19:25.698Z,100136.94
2022-09-12T09:21:59.885Z,100118.28
2022-09-12T09:24:34.417Z,100126.88
2022-09-12T09:27:23.495Z,100143.72
2022-09-12T09:29:57.118Z,100139.63
2022-09-12T09:32:29.281Z,100140.91
2022-09-12T09:34:57.505Z,100130.09
2022-09-12T09:37:36.541Z,100127.03
2022-09-12T09:40:15.680Z,100126.69
2022-09-12T09:42:53.986Z,100112.50
2022-09-12T09:45:25.172Z,100119.97
2022-09-12T09:47:58.408Z,100126.91
2022-09-12T09:50:26.537Z,100114.38
2022-09-12T09:52:57.003Z,100102.00
2022-09-12T09:55:31.496Z,100100.09
2022-09-12T09:58:00.848Z,100117.28
2022-09-12T10:00:34.087Z,100118.56
2022-09-12T10:05:50.611Z,100123.28
2022-09-12T10:08:24.034Z,100111.34
2022-09-12T10:10:57.435Z,100119.88
2022-09-12T10:13:34.143Z,100109.19
2022-09-12T10:16:04.138Z,100097.44
2022-09-12T10:18:42.234Z,100095.56
2022-09-12T10:21:21.212Z,100106.88
2022-09-12T10:23:53.972Z,100087.78
2022-09-12T10:26:22.777Z,100105.72
2022-09-12T10:28:54.572Z,100114.19
2022-09-12T10:31:29.180Z,100114.44
2022-09-12T10:34:00.932Z,100117.81
2022-09-12T10:36:38.516Z,100097.56
2022-09-12T10:39:07.965Z,100106.53
2022-09-12T10:41:39.315Z,100088.34
2022-09-12T10:44:15.875Z,100079.13
2022-09-12T10:46:43.965Z,100072.25
2022-09-12T10:49:25.272Z,100074.22
2022-09-12T10:51:54.993Z,100060.47
2022-09-12T10:54:26.073Z,100075.47
2022-09-12T10:57:09.562Z,100077.69
2022-09-12T11:00:05.264Z,100084.56
2022-09-12T11:02:44.389Z,100086.50
2022-09-12T11:05:22.825Z,100083.88
2022-09-12T11:07:57.515Z,100100.59
2022-09-12T11:10:43.769Z,100095.56
2022-09-12T11:13:31.189Z,100095.28
2022-09-12T11:16:22.969Z,100072.28
2022-09-12T11:19:23.516Z,100090.44
2022-09-12T11:22:11.752Z,100103.06
2022-09-12T11:25:00.198Z,100099.34
2022-09-12T11:27:48.513Z,100092.53
2022-09-12T11:30:18.749Z,100090.34
2022-09-12T11:33:10.399Z,100088.13
2022-09-12T11:35:51.864Z,100087.53
2022-09-12T11:38:50.851Z,100094.28
2022-09-12T11:41:24.693Z,100081.81
2022-09-12T11:43:59.554Z,100093.47
2022-09-12T11:46:36.205Z,100091.13
2022-09-12T11:49:28.491Z,100090.09
2022-09-12T11:52:01.517Z,100070.94
2022-09-12T11:54:36.186Z,100092.28
2022-09-12T11:57:12.457Z,100090.22
2022-09-12T11:59:47.427Z,100087.56
2022-09-12T12:02:23.238Z,100083.25
2022-09-12T12:05:04.914Z,100074.31
2022-09-12T12:07:45.603Z,100066.94
2022-09-12T12:10:26.307Z,100083.06
2022-09-12T12:12:56.396Z,100079.47
2022-09-12T12:15:26.988Z,100074.59
2022-09-12T12:18:03.699Z,100060.94
2022-09-12T12:20:33.536Z,100075.03
2022-09-12T12:23:02.071Z,100078.34
2022-09-12T12:25:42.957Z,100064.66
2022-09-12T12:28:10.988Z,100066.41
2022-09-12T12:31:03.676Z,100063.16
2022-09-12T12:34:02.090Z,100063.59
2022-09-12T12:36:38.516Z,100057.19
2022-09-12T12:39:45.877Z,100060.66
2022-09-12T12:42:50.537Z,100041.84
2022-09-12T12:46:01.594Z,100042.66
2022-09-12T12:48:45.431Z,100051.88
2022-09-12T12:51:27.345Z,100030.34
2022-09-12T12:53:57.057Z,100031.25
2022-09-12T12:56:30.731Z,100034.13
2022-09-12T12:59:02.361Z,100037.50
2022-09-12T13:01:31.846Z,100015.94
2022-09-12T13:04:03.788Z,100017.31
2022-09-12T13:06:35.386Z,100016.81
2022-09-12T13:09:08.771Z,100003.94
2022-09-12T13:11:39.581Z,100011.25
2022-09-12T13:14:28.413Z,99991.91
2022-09-12T13:17:00.159Z,99996.97
2022-09-12T13:19:31.936Z,99997.53
2022-09-12T13:22:02.795Z,99988.31
2022-09-12T13:24:32.298Z,99986.00
2022-09-12T13:27:00.351Z,99977.25
2022-09-12T13:29:29.336Z,99983.41
2022-09-12T13:31:59.391Z,99968.09
2022-09-12T13:34:30.412Z,99974.50
2022-09-12T13:37:22.156Z,99964.50
2022-09-12T13:40:00.902Z,99946.53
2022-09-12T13:42:42.652Z,99958.38
2022-09-12T13:45:15.510Z,99936.69
2022-09-12T13:47:45.636Z,99944.56
2022-09-12T13:50:19.057Z,99951.38
2022-09-12T13:52:51.637Z,99946.19
2022-09-12T13:55:33.770Z,99945.63
2022-09-12T13:58:03.463Z,99939.53
2022-09-12T14:00:33.229Z,99932.28
2022-09-12T14:03:19.730Z,99930.69
2022-09-12T14:05:57.897Z,99918.47
2022-09-12T14:08:27.009Z,99922.03
2022-09-12T14:10:56.432Z,99908.25
2022-09-12T14:13:28.248Z,99924.94
2022-09-12T14:15:57.515Z,99909.09
2022-09-12T14:18:28.547Z,99906.03
2022-09-12T14:21:00.908Z,99907.78
2022-09-12T14:23:31.164Z,99909.03
2022-09-12T14:26:05.061Z,99908.00
2022-09-12T14:28:34.403Z,99897.22
2022-09-12T14:31:05.861Z,99887.75
2022-09-12T14:33:46.935Z,99877.81
2022-09-12T14:36:22.791Z,99890.28
2022-09-12T14:38:53.451Z,99891.75
2022-09-12T14:41:30.815Z,99885.69
2022-09-12T14:44:01.655Z,99882.34
2022-09-12T14:46:34.565Z,99879.03
2022-09-12T14:49:09.191Z,99883.72
2022-09-12T14:51:40.576Z,99865.53
2022-09-12T14:54:37.253Z,99863.47
2022-09-12T14:57:32.259Z,99861.59
2022-09-12T15:00:17.857Z,99847.03
2022-09-12T15:02:45.989Z,99856.75
2022-09-12T15:05:23.766Z,99858.41
2022-09-12T15:07:57.882Z,99846.03
2022-09-12T15:10:31.086Z,99830.25
2022-09-12T15:13:21.935Z,99844.28
2022-09-12T15:15:52.189Z,99826.63
2022-09-12T15:18:21.385Z,99831.47
2022-09-12T15:20:52.166Z,99824.47
2022-09-12T15:23:28.268Z,99819.53
2022-09-12T15:25:56.638Z,99824.16
2022-09-12T15:28:26.893Z,99815.84
2022-09-12T15:30:57.767Z,99814.47
2022-09-12T15:33:26.583Z,99805.25
2022-09-12T15:35:54.589Z,99799.34
2022-09-12T15:38:26.382Z,99792.34
2022-09-12T15:41:01.097Z,99802.38
2022-09-12T15:43:31.745Z,99814.25
2022-09-12T15:46:07.081Z,99761.09
2022-09-12T15:48:37.016Z,99788.13
2022-09-12T15:51:07.720Z,99792.75
2022-09-12T15:53:35.918Z,99781.47
2022-09-12T15:56:06.663Z,99779.19
2022-09-12T15:58:36.432Z,99783.19
2022-09-12T16:01:05.521Z,99777.38
2022-09-12T16:03:33.535Z,99772.53
2022-09-12T16:06:03.583Z,99767.44
2022-09-12T16:08:33.004Z,99751.25
2022-09-12T16:11:05.770Z,99729.03
2022-09-12T16:13:35.811Z,99727.31
2022-09-12T16:16:09.039Z,99704.47
2022-09-12T16:18:37.368Z,99692.97
2022-09-12T16:21:11.324Z,99721.81
2022-09-12T16:23:43.671Z,99691.34
2022-09-12T16:26:11.866Z,99722.84
2022-09-12T16:28:41.576Z,99709.75
2022-09-12T16:31:13.803Z,99697.66
2022-09-12T16:33:42.281Z,99688.00
2022-09-12T16:36:12.143Z,99692.28
2022-09-12T16:38:42.832Z,99681.91
2022-09-12T16:41:11.701Z,99677.53
2022-09-12T16:43:39.967Z,99668.00
2022-09-12T16:46:11.436Z,99667.00
2022-09-12T16:48:44.429Z,99669.16
2022-09-12T16:51:14.630Z,99656.09
2022-09-12T16:53:43.112Z,99642.41
2022-09-12T16:56:11.291Z,99639.66
2022-09-12T16:58:48.199Z,99622.19
2022-09-12T17:01:20.180Z,99618.16
2022-09-12T17:03:48.721Z,99637.69
2022-09-12T17:06:18.966Z,99639.41
2022-09-12T17:08:48.846Z,99629.88
2022-09-12T17:11:19.329Z,99624.38
2022-09-12T17:14:07.879Z,99622.38
2022-09-12T17:16:39.539Z,99612.66
2022-09-12T17:19:08.660Z,99595.06
2022-09-12T17:21:36.643Z,99592.75
2022-09-12T17:24:12.375Z,99599.69
2022-09-12T17:26:40.666Z,99592.56
2022-09-12T17:29:14.737Z,99583.94
2022-09-12T17:31:48.153Z,99574.06
2022-09-12T17:34:17.592Z,99576.38
2022-09-12T17:36:46.221Z,99572.81
2022-09-12T17:39:14.752Z,99564.06
2022-09-12T17:41:43.225Z,99556.50
2022-09-12T17:44:12.900Z,99558.09
2022-09-12T17:46:41.588Z,99548.78
2022-09-12T17:49:14.839Z,99530.53
2022-09-12T17:51:43.740Z,99534.19
2022-09-12T17:54:14.152Z,99544.09
2022-09-12T17:56:43.524Z,99525.00
2022-09-12T17:59:15.823Z,99514.88
2022-09-12T18:02:01.846Z,99496.75
2022-09-12T18:04:31.312Z,99521.22
2022-09-12T18:07:00.440Z,99505.38
2022-09-12T18:09:29.160Z,99507.22
2022-09-12T18:11:57.602Z,99510.75
2022-09-12T18:14:26.276Z,99505.47
2022-09-12T18:17:01.794Z,99504.88
2022-09-12T18:19:32.134Z,99498.22
2022-09-12T18:22:00.111Z,99500.06
2022-09-12T18:24:28.699Z,99492.13
2022-09-12T18:26:57.590Z,99481.53
2022-09-12T18:29:27.693Z,99476.13
2022-09-12T18:31:55.701Z,99471.31
2022-09-12T18:34:23.749Z,99454.47
2022-09-12T18:36:54.946Z,99467.00
2022-09-12T18:39:27.317Z,99467.41
2022-09-12T18:41:56.358Z,99454.56
2022-09-12T18:44:24.326Z,99448.75
2022-09-12T18:46:52.848Z,99427.94
2022-09-12T18:49:21.092Z,99417.72
2022-09-12T18:51:49.117Z,99431.81
2022-09-12T18:54:18.812Z,99424.88
2022-09-12T18:56:47.639Z,99428.59
2022-09-12T18:59:15.742Z,99414.47
2022-09-12T19:01:44.272Z,99404.03
2022-09-12T19:04:13.637Z,99392.59
2022-09-12T19:06:43.781Z,99393.28
2022-09-12T19:09:13.148Z,99397.44
2022-09-12T19:11:48.816Z,99382.06
2022-09-12T19:14:17.719Z,99392.50
2022-09-12T19:16:46.266Z,99397.09
2022-09-12T19:19:14.218Z,99376.91
2022-09-12T19:21:42.876Z,99366.44
2022-09-12T19:24:11.412Z,99364.13
2022-09-12T19:26:40.176Z,99367.75
2022-09-12T19:29:10.232Z,99360.75
2022-09-12T19:31:38.371Z,99338.19
2022-09-12T19:34:09.337Z,99342.16
2022-09-12T19:36:45.489Z,99324.31
2022-09-12T19:39:15.311Z,99316.03
2022-09-12T19:41:43.857Z,99322.56
2022-09-12T19:44:13.277Z,99312.66
2022-09-12T19:46:41.751Z,99305.06
2022-09-12T19:49:11.973Z,99299.22
2022-09-12T19:51:43.922Z,99288.34
2022-09-12T19:54:15.714Z,99271.53
2022-09-12T19:56:43.800Z,99272.25
2022-09-12T19:59:13.278Z,99269.13
2022-09-12T20:01:41.474Z,99266.56
2022-09-12T20:04:13.748Z,99261.72
2022-09-12T20:06:41.781Z,99250.19
2022-09-12T20:09:09.772Z,99230.94
2022-09-12T20:11:38.161Z,99239.16
2022-09-12T20:14:06.208Z,99216.66
2022-09-12T20:16:35.600Z,99220.28
2022-09-12T20:19:08.333Z,99217.53
2022-09-12T20:21:37.771Z,99204.09
2022-09-12T20:24:07.658Z,99188.97
2022-09-12T20:26:35.995Z,99169.41
2022-09-12T20:29:04.785Z,99179.56
2022-09-12T20:31:33.472Z,99171.56
2022-09-12T20:34:02.986Z,99173.78
2022-09-12T20:36:31.009Z,99165.22
2022-09-12T20:39:01.283Z,99155.06
2022-09-12T20:41:31.614Z,99138.09
2022-09-12T20:43:59.925Z,99144.84
2022-09-12T20:46:29.272Z,99134.59
2022-09-12T20:48:58.470Z,99118.41
2022-09-12T20:51:41.928Z,99101.19
2022-09-12T20:54:11.334Z,99101.28
2022-09-12T20:56:39.385Z,99108.22
2022-09-12T20:59:07.633Z,99100.47
2022-09-12T21:01:35.718Z,99089.34
2022-09-12T21:04:04.487Z,99079.44
2022-09-12T21:06:34.063Z,99072.88
2022-09-12T21:09:02.059Z,99065.44
2022-09-12T21:11:30.352Z,99060.38
2022-09-12T21:13:58.965Z,99049.38
2022-09-12T21:16:27.322Z,99046.59
2022-09-12T21:18:58.844Z,99045.22
2022-09-12T21:21:27.562Z,99023.13
2022-09-12T21:23:59.911Z,99022.78
2022-09-12T21:26:28.339Z,99013.41
2022-09-12T21:28:56.409Z,99021.34
2022-09-12T21:31:25.412Z,99014.38
2022-09-12T21:33:53.453Z,99009.72
2022-09-12T21:36:21.552Z,98997.84
2022-09-12T21:38:49.524Z,98992.47
2022-09-12T21:41:19.463Z,98989.91
2022-09-12T21:43:47.508Z,98995.81
2022-09-12T21:46:15.567Z,98988.44
2022-09-12T21:48:43.987Z,98989.19
2022-09-12T21:51:11.926Z,98972.94
2022-09-12T21:53:39.948Z,98963.88
2022-09-12T21:56:09.920Z,98958.13
2022-09-12T21:58:39.432Z,98933.41
2022-09-12T22:01:09.576Z,98949.38
2022-09-12T22:03:37.830Z,98930.50
2022-09-12T22:06:07.816Z,98937.44
2022-09-12T22:08:37.593Z,98914.53
2022-09-12T22:11:09.496Z,98910.91
2022-09-12T22:13:42.707Z,98911.38
2022-09-12T22:16:11.619Z,98892.31
2022-09-12T22:18:40.110Z,98898.72
2022-09-12T22:21:12.337Z,98898.84
2022-09-12T22:23:58.344Z,98887.19
2022-09-12T22:26:27.054Z,98881.53
2022-09-12T22:28:57.138Z,98866.66
2022-09-12T22:31:27.019Z,98860.56
2022-09-12T22:33:57.102Z,98860.81
2022-09-12T22:36:30.514Z,98841.16
2022-09-12T22:38:59.527Z,98835.59
2022-09-12T22:41:27.497Z,98829.81
2022-09-12T22:43:57.596Z,98836.97
2022-09-12T22:46:28.149Z,98821.16
2022-09-12T22:48:56.659Z,98827.34
2022-09-12T22:51:24.673Z,98814.78
2022-09-12T22:53:53.039Z,98812.00
2022-09-12T22:56:21.159Z,98804.81
2022-09-12T22:58:49.423Z,98797.94
2022-09-12T23:01:19.046Z,98783.50
2022-09-12T23:03:47.140Z,98783.06
2022-09-12T23:06:15.241Z,98779.84
2022-09-12T23:08:43.630Z,98769.38
2022-09-12T23:11:13.984Z,98760.06
2022-09-12T23:13:43.983Z,98747.28
2022-09-12T23:16:17.088Z,98737.53
2022-09-12T23:18:47.006Z,98732.59
2022-09-12T23:21:16.668Z,98721.84
2022-09-12T23:23:44.936Z,98713.16
2022-09-12T23:26:17.242Z,98677.50
2022-09-12T23:28:50.029Z,98689.81
2022-09-12T23:31:18.925Z,98688.34
2022-09-12T23:33:50.008Z,98677.63
2022-09-12T23:36:17.989Z,98668.75
2022-09-12T23:38:47.861Z,98666.06
2022-09-12T23:41:17.347Z,98677.97
2022-09-12T23:43:45.635Z,98664.19
2022-09-12T23:46:14.608Z,98660.44
2022-09-12T23:48:43.276Z,98663.13
2022-09-12T23:51:13.361Z,98661.72
2022-09-12T23:53:41.394Z,98654.91
2022-09-12T23:56:09.575Z,98651.84
2022-09-12T23:58:37.885Z,98661.81
